Dukhan — A7LL — position and weather

sailwx.info

Track history (hours):
 
Tides and Currents Weather Stations Pressure Air Temp Water Temp Dewpoint Dewpoint Depression Visibility Wind Speed Wind Dir Waves Ship Positions

Dukhan

Last reported at 2017-Sep-17 00:28 UTC. Time now 2017-Sep-24 10:17 UTC.
Position N 40°25' W 070°43'.

Length 176 m; draft 7.5 m.

Type: Tanker. MMSI: 466217000.

Date/timePositionNaut miles runAvg speedWind from/ knotsBaromVisibWave heightAir tempDewpointWater temp
2017-Sep-17 00:28N 40°25' W 070°43'1013.1
2017-Sep-16 23:41N 40°25' W 070°57'212.8
2017-Sep-16 23:30N 40°25' W 070°60'712.8
2017-Sep-16 23:00N 40°24' W 071°08'612.9
2017-Sep-16 22:30N 40°24' W 071°17'713.1
2017-Sep-16 21:57N 40°24' W 071°26'613.2
2017-Sep-16 21:30N 40°24' W 071°34'613.0
2017-Sep-16 21:00N 40°24' W 071°42'713.1
2017-Sep-16 20:30N 40°23' W 071°51'7812.8
2017-Sep-16 14:25N 40°25' W 073°34'613.0
2017-Sep-16 13:59N 40°26' W 073°41'612.2
2017-Sep-16 13:30N 40°27' W 073°48'5 9.7
2017-Sep-16 13:00N 40°29' W 073°54'713.8
2017-Sep-16 12:30N 40°33' W 074°02'2 4.2
2017-Sep-16 12:00N 40°35' W 074°02'0 0.1
2017-Sep-16 11:30N 40°35' W 074°02'0 0.2
2017-Sep-16 11:00N 40°35' W 074°02'0 0.1
2017-Sep-16 10:30N 40°35' W 074°02'0 0.0
2017-Sep-16 10:00N 40°35' W 074°02'0 0.1
2017-Sep-16 09:30N 40°35' W 074°02'0 0.1
2017-Sep-16 09:00N 40°35' W 074°02'0 0.0
2017-Sep-16 08:30N 40°35' W 074°02'0 0.0
2017-Sep-16 08:00N 40°35' W 074°02'0 0.0
2017-Sep-16 07:30N 40°35' W 074°02'0 0.1
2017-Sep-16 07:00N 40°35' W 074°02'0 0.1
2017-Sep-16 06:30N 40°35' W 074°02'0 0.1
2017-Sep-16 06:00N 40°35' W 074°02'2 4.7
2017-Sep-16 05:30N 40°37' W 074°03'3 6.8
2017-Sep-16 05:00N 40°39' W 074°07'4 7.3
2017-Sep-16 04:30N 40°38' W 074°12'3 5.1
2017-Sep-16 04:00N 40°36' W 074°12'1 2.2
2017-Sep-16 03:30N 40°35' W 074°13'1 0.0
2017-Sep-14 21:25N 40°35' W 074°12'0 0.0
2017-Sep-14 21:00N 40°35' W 074°12'0 0.0
2017-Sep-14 20:30N 40°35' W 074°12'0 0.0
2017-Sep-14 20:00N 40°35' W 074°12'0 0.0
2017-Sep-14 19:30N 40°35' W 074°12'1 2.1
2017-Sep-14 19:00N 40°36' W 074°12'3 5.3
2017-Sep-14 18:30N 40°39' W 074°11'4 7.2
2017-Sep-14 18:00N 40°39' W 074°06'2 4.1
2017-Sep-14 17:31N 40°38' W 074°04'0 0.1
2017-Sep-14 17:00N 40°38' W 074°04'0 0.1
2017-Sep-14 16:30N 40°38' W 074°04'0 0.2
2017-Sep-14 16:00N 40°38' W 074°04'0 0.2
2017-Sep-14 15:30N 40°38' W 074°04'0 0.1
2017-Sep-14 15:00N 40°38' W 074°04'0 0.0
2017-Sep-14 14:30N 40°38' W 074°04'0 0.1
2017-Sep-14 13:57N 40°38' W 074°04'0 0.0
2017-Sep-14 13:30N 40°38' W 074°04'0 0.0
2017-Sep-14 12:57N 40°38' W 074°04'0 0.0
2017-Sep-14 12:30N 40°38' W 074°04'0 0.0
2017-Sep-14 12:00N 40°38' W 074°04'0 0.0
2017-Sep-14 11:30N 40°38' W 074°04'0 0.1
2017-Sep-14 11:00N 40°38' W 074°04'0 0.0
2017-Sep-14 10:30N 40°38' W 074°04'0 0.0
2017-Sep-14 10:00N 40°38' W 074°04'0 0.2
2017-Sep-14 09:30N 40°38' W 074°04'0 0.3
2017-Sep-14 09:00N 40°38' W 074°04'0 0.0
2017-Sep-14 08:30N 40°38' W 074°04'0 0.0
2017-Sep-14 08:00N 40°38' W 074°04'0 0.0
2017-Sep-14 07:30N 40°38' W 074°04'0 0.0
2017-Sep-14 07:00N 40°38' W 074°04'0 0.0
2017-Sep-14 06:30N 40°38' W 074°04'0 0.0
2017-Sep-14 06:00N 40°38' W 074°04'0 0.0
2017-Sep-14 05:30N 40°38' W 074°04'0 0.0
2017-Sep-14 05:00N 40°38' W 074°04'0 0.1
2017-Sep-14 04:30N 40°38' W 074°04'0 0.3
2017-Sep-14 04:00N 40°38' W 074°04'0 0.1
2017-Sep-14 03:30N 40°38' W 074°04'0 0.1
2017-Sep-14 03:00N 40°38' W 074°04'0 0.0
2017-Sep-14 02:30N 40°38' W 074°04'0 0.1
2017-Sep-14 02:00N 40°38' W 074°04'0 0.0
2017-Sep-14 01:30N 40°38' W 074°04'0 0.0
2017-Sep-14 01:00N 40°38' W 074°04'0 0.0
2017-Sep-14 00:30N 40°38' W 074°04'0 0.0
2017-Sep-14 00:00N 40°38' W 074°04'0 0.0
2017-Sep-13 23:30N 40°38' W 074°04'0 0.0
2017-Sep-13 23:00N 40°38' W 074°04'0 0.1
2017-Sep-13 22:30N 40°38' W 074°04'0 0.0
2017-Sep-13 22:00N 40°38' W 074°04'0 0.0
2017-Sep-13 21:30N 40°38' W 074°04'0 0.2
2017-Sep-13 21:00N 40°38' W 074°04'0 0.3
2017-Sep-13 20:30N 40°38' W 074°04'0 0.0
2017-Sep-13 20:00N 40°38' W 074°04'0 0.0
2017-Sep-13 19:30N 40°38' W 074°04'0 0.0
2017-Sep-13 19:00N 40°38' W 074°04'0 0.0
2017-Sep-13 18:30N 40°38' W 074°04'0 0.0
2017-Sep-13 18:00N 40°38' W 074°04'0 0.0
2017-Sep-13 17:30N 40°38' W 074°04'0 0.0
2017-Sep-13 17:00N 40°38' W 074°04'0 0.0
2017-Sep-13 16:30N 40°38' W 074°04'0 0.1
2017-Sep-13 16:00N 40°38' W 074°04'0 0.0
2017-Sep-13 15:27N 40°38' W 074°04'0 0.4
2017-Sep-13 15:00N 40°38' W 074°04'0 0.1
2017-Sep-13 14:30N 40°38' W 074°04'0 0.0
2017-Sep-13 14:00N 40°38' W 074°04'0 0.0
2017-Sep-13 13:30N 40°38' W 074°04'0 0.0
2017-Sep-13 13:00N 40°38' W 074°04'0 0.0
2017-Sep-13 12:30N 40°38' W 074°04'0 0.0
2017-Sep-13 12:00N 40°38' W 074°04'0 0.0
2017-Sep-13 11:30N 40°38' W 074°04'0 0.0
2017-Sep-13 11:00N 40°38' W 074°04'0 0.1
2017-Sep-13 10:30N 40°38' W 074°04'0 0.0
2017-Sep-13 10:00N 40°38' W 074°04'0 0.0
2017-Sep-13 09:30N 40°38' W 074°04'0 0.0
2017-Sep-13 09:00N 40°38' W 074°04'0 0.1
2017-Sep-13 08:30N 40°38' W 074°04'0 0.3
2017-Sep-13 08:00N 40°38' W 074°04'0 0.2
2017-Sep-13 07:30N 40°38' W 074°04'0 0.0
2017-Sep-13 07:00N 40°38' W 074°04'0 0.1
2017-Sep-13 06:30N 40°38' W 074°04'0 0.0
2017-Sep-13 06:00N 40°38' W 074°04'0 0.0
2017-Sep-13 05:30N 40°38' W 074°04'0 0.0
2017-Sep-13 05:00N 40°38' W 074°04'0 0.1
2017-Sep-13 04:27N 40°38' W 074°04'0 0.1
2017-Sep-13 04:00N 40°38' W 074°04'1 1.1
2017-Sep-13 03:30N 40°38' W 074°03'3 6.2
2017-Sep-13 03:01N 40°35' W 074°02'510.7
2017-Sep-13 02:30N 40°31' W 073°58'612.6
2017-Sep-13 02:00N 40°28' W 073°51'4 7.9
2017-Sep-13 01:31N 40°27' W 073°46'5 9.9
2017-Sep-13 01:00N 40°27' W 073°39'612.4
2017-Sep-13 00:30N 40°28' W 073°31'612.4
2017-Sep-13 00:00N 40°29' W 073°23'612.7
2017-Sep-12 23:30N 40°29' W 073°15'612.6
2017-Sep-12 23:00N 40°30' W 073°06'612.7
2017-Sep-12 22:31N 40°30' W 072°58'612.7
2017-Sep-12 22:00N 40°30' W 072°50'612.7
2017-Sep-12 21:31N 40°30' W 072°41'612.8
2017-Sep-12 21:00N 40°31' W 072°33'612.9
2017-Sep-12 20:30N 40°31' W 072°24'712.8
2017-Sep-12 19:59N 40°31' W 072°16'1710.5
2017-Sep-12 18:21N 40°31' W 071°53'410.0
2017-Sep-12 17:56N 40°32' W 071°48'5713.1
2017-Sep-12 13:34N 40°33' W 070°32'  
Track history (hours):
 
Tides and Currents Weather Stations Pressure Air Temp Water Temp Dewpoint Dewpoint Depression Visibility Wind Speed Wind Dir Waves Ship Positions

Dukhan

Last reported at 2017-Sep-17 00:28 UTC. Time now 2017-Sep-24 10:17 UTC.
Position N 40°25' W 070°43'.

Length 176 m; draft 7.5 m.

Type: Tanker. MMSI: 466217000.

Date/timePositionNaut miles runAvg speedWind from/ knotsBaromVisibWave heightAir tempDewpointWater temp
2017-Sep-17 00:28N 40°25' W 070°43'1013.1
2017-Sep-16 23:41N 40°25' W 070°57'212.8
2017-Sep-16 23:30N 40°25' W 070°60'712.8
2017-Sep-16 23:00N 40°24' W 071°08'612.9
2017-Sep-16 22:30N 40°24' W 071°17'713.1
2017-Sep-16 21:57N 40°24' W 071°26'613.2
2017-Sep-16 21:30N 40°24' W 071°34'613.0
2017-Sep-16 21:00N 40°24' W 071°42'713.1
2017-Sep-16 20:30N 40°23' W 071°51'7812.8
2017-Sep-16 14:25N 40°25' W 073°34'613.0
2017-Sep-16 13:59N 40°26' W 073°41'612.2
2017-Sep-16 13:30N 40°27' W 073°48'5 9.7
2017-Sep-16 13:00N 40°29' W 073°54'713.8
2017-Sep-16 12:30N 40°33' W 074°02'2 4.2
2017-Sep-16 12:00N 40°35' W 074°02'0 0.1
2017-Sep-16 11:30N 40°35' W 074°02'0 0.2
2017-Sep-16 11:00N 40°35' W 074°02'0 0.1
2017-Sep-16 10:30N 40°35' W 074°02'0 0.0
2017-Sep-16 10:00N 40°35' W 074°02'0 0.1
2017-Sep-16 09:30N 40°35' W 074°02'0 0.1
2017-Sep-16 09:00N 40°35' W 074°02'0 0.0
2017-Sep-16 08:30N 40°35' W 074°02'0 0.0
2017-Sep-16 08:00N 40°35' W 074°02'0 0.0
2017-Sep-16 07:30N 40°35' W 074°02'0 0.1
2017-Sep-16 07:00N 40°35' W 074°02'0 0.1
2017-Sep-16 06:30N 40°35' W 074°02'0 0.1
2017-Sep-16 06:00N 40°35' W 074°02'2 4.7
2017-Sep-16 05:30N 40°37' W 074°03'3 6.8
2017-Sep-16 05:00N 40°39' W 074°07'4 7.3
2017-Sep-16 04:30N 40°38' W 074°12'3 5.1
2017-Sep-16 04:00N 40°36' W 074°12'1 2.2
2017-Sep-16 03:30N 40°35' W 074°13'1 0.0
2017-Sep-14 21:25N 40°35' W 074°12'0 0.0
2017-Sep-14 21:00N 40°35' W 074°12'0 0.0
2017-Sep-14 20:30N 40°35' W 074°12'0 0.0
2017-Sep-14 20:00N 40°35' W 074°12'0 0.0
2017-Sep-14 19:30N 40°35' W 074°12'1 2.1
2017-Sep-14 19:00N 40°36' W 074°12'3 5.3
2017-Sep-14 18:30N 40°39' W 074°11'4 7.2
2017-Sep-14 18:00N 40°39' W 074°06'2 4.1
2017-Sep-14 17:31N 40°38' W 074°04'0 0.1
2017-Sep-14 17:00N 40°38' W 074°04'0 0.1
2017-Sep-14 16:30N 40°38' W 074°04'0 0.2
2017-Sep-14 16:00N 40°38' W 074°04'0 0.2
2017-Sep-14 15:30N 40°38' W 074°04'0 0.1
2017-Sep-14 15:00N 40°38' W 074°04'0 0.0
2017-Sep-14 14:30N 40°38' W 074°04'0 0.1
2017-Sep-14 13:57N 40°38' W 074°04'0 0.0
2017-Sep-14 13:30N 40°38' W 074°04'0 0.0
2017-Sep-14 12:57N 40°38' W 074°04'0 0.0
2017-Sep-14 12:30N 40°38' W 074°04'0 0.0
2017-Sep-14 12:00N 40°38' W 074°04'0 0.0
2017-Sep-14 11:30N 40°38' W 074°04'0 0.1
2017-Sep-14 11:00N 40°38' W 074°04'0 0.0
2017-Sep-14 10:30N 40°38' W 074°04'0 0.0
2017-Sep-14 10:00N 40°38' W 074°04'0 0.2
2017-Sep-14 09:30N 40°38' W 074°04'0 0.3
2017-Sep-14 09:00N 40°38' W 074°04'0 0.0
2017-Sep-14 08:30N 40°38' W 074°04'0 0.0
2017-Sep-14 08:00N 40°38' W 074°04'0 0.0
2017-Sep-14 07:30N 40°38' W 074°04'0 0.0
2017-Sep-14 07:00N 40°38' W 074°04'0 0.0
2017-Sep-14 06:30N 40°38' W 074°04'0 0.0
2017-Sep-14 06:00N 40°38' W 074°04'0 0.0
2017-Sep-14 05:30N 40°38' W 074°04'0 0.0
2017-Sep-14 05:00N 40°38' W 074°04'0 0.1
2017-Sep-14 04:30N 40°38' W 074°04'0 0.3
2017-Sep-14 04:00N 40°38' W 074°04'0 0.1
2017-Sep-14 03:30N 40°38' W 074°04'0 0.1
2017-Sep-14 03:00N 40°38' W 074°04'0 0.0
2017-Sep-14 02:30N 40°38' W 074°04'0 0.1
2017-Sep-14 02:00N 40°38' W 074°04'0 0.0
2017-Sep-14 01:30N 40°38' W 074°04'0 0.0
2017-Sep-14 01:00N 40°38' W 074°04'0 0.0
2017-Sep-14 00:30N 40°38' W 074°04'0 0.0
2017-Sep-14 00:00N 40°38' W 074°04'0 0.0
2017-Sep-13 23:30N 40°38' W 074°04'0 0.0
2017-Sep-13 23:00N 40°38' W 074°04'0 0.1
2017-Sep-13 22:30N 40°38' W 074°04'0 0.0
2017-Sep-13 22:00N 40°38' W 074°04'0 0.0
2017-Sep-13 21:30N 40°38' W 074°04'0 0.2
2017-Sep-13 21:00N 40°38' W 074°04'0 0.3
2017-Sep-13 20:30N 40°38' W 074°04'0 0.0
2017-Sep-13 20:00N 40°38' W 074°04'0 0.0
2017-Sep-13 19:30N 40°38' W 074°04'0 0.0
2017-Sep-13 19:00N 40°38' W 074°04'0 0.0
2017-Sep-13 18:30N 40°38' W 074°04'0 0.0
2017-Sep-13 18:00N 40°38' W 074°04'0 0.0
2017-Sep-13 17:30N 40°38' W 074°04'0 0.0
2017-Sep-13 17:00N 40°38' W 074°04'0 0.0
2017-Sep-13 16:30N 40°38' W 074°04'0 0.1
2017-Sep-13 16:00N 40°38' W 074°04'0 0.0
2017-Sep-13 15:27N 40°38' W 074°04'0 0.4
2017-Sep-13 15:00N 40°38' W 074°04'0 0.1
2017-Sep-13 14:30N 40°38' W 074°04'0 0.0
2017-Sep-13 14:00N 40°38' W 074°04'0 0.0
2017-Sep-13 13:30N 40°38' W 074°04'0 0.0
2017-Sep-13 13:00N 40°38' W 074°04'0 0.0
2017-Sep-13 12:30N 40°38' W 074°04'0 0.0
2017-Sep-13 12:00N 40°38' W 074°04'0 0.0
2017-Sep-13 11:30N 40°38' W 074°04'0 0.0
2017-Sep-13 11:00N 40°38' W 074°04'0 0.1
2017-Sep-13 10:30N 40°38' W 074°04'0 0.0
2017-Sep-13 10:00N 40°38' W 074°04'0 0.0
2017-Sep-13 09:30N 40°38' W 074°04'0 0.0
2017-Sep-13 09:00N 40°38' W 074°04'0 0.1
2017-Sep-13 08:30N 40°38' W 074°04'0 0.3
2017-Sep-13 08:00N 40°38' W 074°04'0 0.2
2017-Sep-13 07:30N 40°38' W 074°04'0 0.0
2017-Sep-13 07:00N 40°38' W 074°04'0 0.1
2017-Sep-13 06:30N 40°38' W 074°04'0 0.0
2017-Sep-13 06:00N 40°38' W 074°04'0 0.0
2017-Sep-13 05:30N 40°38' W 074°04'0 0.0
2017-Sep-13 05:00N 40°38' W 074°04'0 0.1
2017-Sep-13 04:27N 40°38' W 074°04'0 0.1
2017-Sep-13 04:00N 40°38' W 074°04'1 1.1
2017-Sep-13 03:30N 40°38' W 074°03'3 6.2
2017-Sep-13 03:01N 40°35' W 074°02'510.7
2017-Sep-13 02:30N 40°31' W 073°58'612.6
2017-Sep-13 02:00N 40°28' W 073°51'4 7.9
2017-Sep-13 01:31N 40°27' W 073°46'5 9.9
2017-Sep-13 01:00N 40°27' W 073°39'612.4
2017-Sep-13 00:30N 40°28' W 073°31'612.4
2017-Sep-13 00:00N 40°29' W 073°23'612.7
2017-Sep-12 23:30N 40°29' W 073°15'612.6
2017-Sep-12 23:00N 40°30' W 073°06'612.7
2017-Sep-12 22:31N 40°30' W 072°58'612.7
2017-Sep-12 22:00N 40°30' W 072°50'612.7
2017-Sep-12 21:31N 40°30' W 072°41'612.8
2017-Sep-12 21:00N 40°31' W 072°33'612.9
2017-Sep-12 20:30N 40°31' W 072°24'712.8
2017-Sep-12 19:59N 40°31' W 072°16'1710.5
2017-Sep-12 18:21N 40°31' W 071°53'410.0
2017-Sep-12 17:56N 40°32' W 071°48'5713.1
2017-Sep-12 13:34N 40°33' W 070°32'  

Dump ship's entire track history